createdAt,value
2022-11-07T00:00:27.978Z,1001.69
2022-11-07T00:01:28.032Z,1001.67
2022-11-07T00:02:28.016Z,1001.66
2022-11-07T00:03:27.974Z,1001.67
2022-11-07T00:04:27.948Z,1001.68
2022-11-07T00:05:27.924Z,1001.73
2022-11-07T00:06:27.918Z,1001.73
2022-11-07T00:07:27.923Z,1001.73
2022-11-07T00:08:27.890Z,1001.72
2022-11-07T00:09:27.880Z,1001.74
2022-11-07T00:10:27.879Z,1001.76
2022-11-07T00:11:27.868Z,1001.77
2022-11-07T00:12:27.914Z,1001.75
2022-11-07T00:13:27.864Z,1001.74
2022-11-07T00:14:27.852Z,1001.76
2022-11-07T00:15:27.810Z,1001.75
2022-11-07T00:16:27.817Z,1001.77
2022-11-07T00:17:33.799Z,1001.78
2022-11-07T00:18:27.793Z,1001.79
2022-11-07T00:19:27.771Z,1001.79
2022-11-07T00:20:27.772Z,1001.77
2022-11-07T00:21:27.759Z,1001.75
2022-11-07T00:22:27.740Z,1001.72
2022-11-07T00:23:27.722Z,1001.71
2022-11-07T00:24:27.717Z,1001.69
2022-11-07T00:25:27.716Z,1001.71
2022-11-07T00:26:27.708Z,1001.74
2022-11-07T00:27:27.718Z,1001.78
2022-11-07T00:28:27.676Z,1001.84
2022-11-07T00:29:27.669Z,1001.82
2022-11-07T00:30:27.694Z,1001.86
2022-11-07T00:31:27.715Z,1001.91
2022-11-07T00:32:27.632Z,1001.93
2022-11-07T00:33:27.616Z,1001.94
2022-11-07T00:34:27.602Z,1001.93
2022-11-07T00:35:27.594Z,1001.92
2022-11-07T00:36:27.585Z,1001.95
2022-11-07T00:37:27.595Z,1001.93
2022-11-07T00:38:27.570Z,1001.94
2022-11-07T00:39:27.554Z,1001.96
2022-11-07T00:40:27.542Z,1001.97
2022-11-07T00:41:27.531Z,1001.98
2022-11-07T00:42:27.530Z,1001.96
2022-11-07T00:43:27.544Z,1001.94
2022-11-07T00:44:27.509Z,1001.96
2022-11-07T00:45:27.522Z,1001.97
2022-11-07T00:46:27.495Z,1001.98
2022-11-07T00:47:27.472Z,1001.98
2022-11-07T00:48:27.462Z,1001.99
2022-11-07T00:49:27.460Z,1002.00
2022-11-07T00:50:27.434Z,1002.02
2022-11-07T00:51:27.422Z,1002.03
2022-11-07T00:52:27.416Z,1002.04
2022-11-07T00:53:27.401Z,1002.07
2022-11-07T00:54:27.404Z,1002.06
2022-11-07T00:55:27.402Z,1002.06
2022-11-07T00:56:27.374Z,1002.08
2022-11-07T00:57:27.377Z,1002.08
2022-11-07T00:58:27.351Z,1002.10
2022-11-07T00:59:27.348Z,1002.08
2022-11-07T01:00:27.334Z,1002.09
2022-11-07T01:01:27.492Z,1002.09
2022-11-07T01:02:27.458Z,1002.10
2022-11-07T01:03:27.295Z,1002.11
2022-11-07T01:04:27.280Z,1002.14
2022-11-07T01:05:27.272Z,1002.14
2022-11-07T01:06:27.263Z,1002.16
2022-11-07T01:07:27.262Z,1002.17
2022-11-07T01:08:27.264Z,1002.17
2022-11-07T01:09:27.250Z,1002.15
2022-11-07T01:10:27.226Z,1002.16
2022-11-07T01:11:27.201Z,1002.20
2022-11-07T01:12:27.205Z,1002.23
2022-11-07T01:13:27.194Z,1002.21
2022-11-07T01:14:27.194Z,1002.20
2022-11-07T01:15:27.161Z,1002.20
2022-11-07T01:16:27.160Z,1002.19
2022-11-07T01:17:27.153Z,1002.17
2022-11-07T01:18:27.135Z,1002.15
2022-11-07T01:19:27.139Z,1002.15
2022-11-07T01:20:27.126Z,1002.12
2022-11-07T01:21:27.117Z,1002.14
2022-11-07T01:22:27.096Z,1002.14
2022-11-07T01:23:27.083Z,1002.14
2022-11-07T01:24:27.065Z,1002.15
2022-11-07T01:25:27.069Z,1002.16
2022-11-07T01:26:27.039Z,1002.16
2022-11-07T01:27:27.043Z,1002.18
2022-11-07T01:28:27.036Z,1002.19
2022-11-07T01:29:27.013Z,1002.20
2022-11-07T01:30:27.014Z,1002.22
2022-11-07T01:31:26.989Z,1002.22
2022-11-07T01:32:27.026Z,1002.23
2022-11-07T01:33:26.973Z,1002.20
2022-11-07T01:34:26.960Z,1002.19
2022-11-07T01:35:26.948Z,1002.20
2022-11-07T01:36:26.941Z,1002.22
2022-11-07T01:37:26.930Z,1002.20
2022-11-07T01:38:26.930Z,1002.20
2022-11-07T01:39:26.906Z,1002.19
2022-11-07T01:40:26.899Z,1002.18
2022-11-07T01:41:26.903Z,1002.16
2022-11-07T01:42:26.873Z,1002.15
2022-11-07T01:43:26.862Z,1002.12
2022-11-07T01:44:26.874Z,1002.11
2022-11-07T01:45:26.859Z,1002.11
2022-11-07T01:46:26.827Z,1002.13
2022-11-07T01:47:26.833Z,1002.16
2022-11-07T01:48:26.812Z,1002.16
2022-11-07T01:49:26.793Z,1002.14
2022-11-07T01:50:26.799Z,1002.16
2022-11-07T01:51:26.771Z,1002.15
2022-11-07T01:52:26.763Z,1002.14
2022-11-07T01:53:26.767Z,1002.13
2022-11-07T01:54:26.747Z,1002.12
2022-11-07T01:55:26.727Z,1002.13
2022-11-07T01:56:26.734Z,1002.15
2022-11-07T01:57:26.725Z,1002.14
2022-11-07T01:58:26.695Z,1002.13
2022-11-07T01:59:26.689Z,1002.13
2022-11-07T02:00:26.677Z,1002.13
2022-11-07T02:01:26.858Z,1002.11
2022-11-07T02:02:26.896Z,1002.11
2022-11-07T02:03:26.650Z,1002.08
2022-11-07T02:04:26.652Z,1002.08
2022-11-07T02:05:26.622Z,1002.09
2022-11-07T02:06:26.612Z,1002.11
2022-11-07T02:07:26.606Z,1002.12
2022-11-07T02:08:26.590Z,1002.10
2022-11-07T02:09:26.581Z,1002.10
2022-11-07T06:01:27.373Z,1002.43
2022-11-07T06:02:28.350Z,1002.39
2022-11-07T06:03:28.216Z,1002.45
2022-11-07T06:04:28.251Z,1002.42
2022-11-07T06:05:28.202Z,1002.43
2022-11-07T06:06:28.220Z,1002.46
2022-11-07T06:07:28.182Z,1002.50
2022-11-07T06:08:28.153Z,1002.51
2022-11-07T06:09:28.153Z,1002.51
2022-11-07T06:10:28.142Z,1002.51
2022-11-07T06:11:28.132Z,1002.53
2022-11-07T06:12:28.129Z,1002.54
2022-11-07T06:13:28.103Z,1002.51
2022-11-07T06:14:28.108Z,1002.52
2022-11-07T06:15:28.089Z,1002.55
2022-11-07T06:16:34.163Z,1002.53
2022-11-07T06:17:28.067Z,1002.55
2022-11-07T06:18:28.050Z,1002.58
2022-11-07T06:19:28.040Z,1002.55
2022-11-07T06:20:28.057Z,1002.56
2022-11-07T06:21:28.015Z,1002.58
2022-11-07T06:22:28.014Z,1002.54
2022-11-07T06:23:28.001Z,1002.54
2022-11-07T06:24:28.007Z,1002.55
2022-11-07T06:25:27.979Z,1002.57
2022-11-07T06:26:27.994Z,1002.60
2022-11-07T06:27:27.963Z,1002.58
2022-11-07T06:28:27.959Z,1002.58
2022-11-07T06:29:27.943Z,1002.59
2022-11-07T06:30:27.923Z,1002.58
2022-11-07T06:31:27.930Z,1002.61
2022-11-07T06:32:27.913Z,1002.62
2022-11-07T06:33:27.902Z,1002.69
2022-11-07T06:34:27.890Z,1002.71
2022-11-07T06:35:27.878Z,1002.76
2022-11-07T06:36:27.862Z,1002.68
2022-11-07T06:37:27.892Z,1002.74
2022-11-07T06:38:27.842Z,1002.73
2022-11-07T06:39:27.857Z,1002.72
2022-11-07T06:40:27.817Z,1002.74
2022-11-07T06:41:27.817Z,1002.73
2022-11-07T06:42:27.804Z,1002.75
2022-11-07T06:43:27.790Z,1002.76
2022-11-07T06:44:27.787Z,1002.74
2022-11-07T06:45:27.762Z,1002.75
2022-11-07T06:46:27.748Z,1002.75
2022-11-07T06:47:27.749Z,1002.74
2022-11-07T06:48:27.764Z,1002.76
2022-11-07T06:49:27.724Z,1002.76
2022-11-07T06:50:27.726Z,1002.78
2022-11-07T06:51:27.714Z,1002.77
2022-11-07T06:52:27.691Z,1002.82
2022-11-07T06:53:27.705Z,1002.78
2022-11-07T06:54:27.689Z,1002.87
2022-11-07T06:55:27.814Z,1002.84
2022-11-07T06:56:27.669Z,1002.86
2022-11-07T06:57:27.632Z,1002.90
2022-11-07T06:58:27.630Z,1002.91
2022-11-07T06:59:27.619Z,1002.90
2022-11-07T07:00:27.700Z,1002.91
2022-11-07T07:01:27.798Z,1002.96
2022-11-07T07:02:52.318Z,1002.96
2022-11-07T07:03:27.582Z,1002.94
2022-11-07T07:04:27.557Z,1002.97
2022-11-07T07:05:27.561Z,1003.00
2022-11-07T07:06:27.530Z,1003.02
2022-11-07T07:07:27.545Z,1003.03
2022-11-07T07:08:27.540Z,1003.07
2022-11-07T07:09:27.502Z,1003.06
2022-11-07T07:10:27.486Z,1003.09
2022-11-07T07:11:27.498Z,1003.08
2022-11-07T07:12:27.465Z,1003.14
2022-11-07T07:13:27.465Z,1003.10
2022-11-07T07:14:27.479Z,1003.11
2022-11-07T07:15:27.459Z,1003.14
2022-11-07T07:16:27.454Z,1003.13
2022-11-07T07:18:24.422Z,1003.16
2022-11-07T07:19:25.401Z,1003.22
2022-11-07T07:20:25.428Z,1003.18
2022-11-07T07:21:25.374Z,1003.20
2022-11-07T07:22:25.377Z,1003.21
2022-11-07T07:23:25.366Z,1003.20
2022-11-07T07:24:25.342Z,1003.17
2022-11-07T07:25:25.341Z,1003.18
2022-11-07T07:26:25.348Z,1003.14
2022-11-07T07:27:25.318Z,1003.14
2022-11-07T07:28:25.314Z,1003.14
2022-11-07T07:29:25.301Z,1003.16
2022-11-07T07:30:25.282Z,1003.14
2022-11-07T07:31:25.277Z,1003.17
2022-11-07T07:32:25.299Z,1003.20
2022-11-07T07:33:25.250Z,1003.25
2022-11-07T07:34:25.258Z,1003.24
2022-11-07T07:35:25.263Z,1003.29
2022-11-07T07:36:31.302Z,1003.26
2022-11-07T07:37:25.222Z,1003.25
2022-11-07T07:38:25.215Z,1003.24
2022-11-07T07:39:25.173Z,1003.25
2022-11-07T07:40:25.169Z,1003.28
2022-11-07T07:41:25.179Z,1003.23
2022-11-07T07:42:25.151Z,1003.26
2022-11-07T07:43:25.126Z,1003.25
2022-11-07T07:44:25.141Z,1003.24
2022-11-07T07:45:25.147Z,1003.22
2022-11-07T07:46:25.100Z,1003.24
2022-11-07T07:47:25.093Z,1003.26
2022-11-07T07:48:25.076Z,1003.26
2022-11-07T07:49:25.070Z,1003.28
2022-11-07T07:50:25.084Z,1003.26
2022-11-07T07:51:25.049Z,1003.30
2022-11-07T07:52:25.035Z,1003.29
2022-11-07T07:53:25.026Z,1003.28
2022-11-07T07:54:25.044Z,1003.30
2022-11-07T07:55:25.061Z,1003.31
2022-11-07T07:56:25.024Z,1003.33
2022-11-07T07:57:24.978Z,1003.30
2022-11-07T07:58:24.977Z,1003.33
2022-11-07T07:59:24.969Z,1003.36
2022-11-07T08:00:24.960Z,1003.36
2022-11-07T08:01:25.134Z,1003.38
2022-11-07T08:02:25.101Z,1003.40
2022-11-07T08:03:24.939Z,1003.41
2022-11-07T08:04:24.926Z,1003.41
2022-11-07T08:05:24.889Z,1003.38
2022-11-07T08:06:24.884Z,1003.39
2022-11-07T08:07:24.870Z,1003.40
2022-11-07T08:08:24.880Z,1003.41
2022-11-07T08:09:24.858Z,1003.41
2022-11-07T08:10:41.569Z,1003.42
2022-11-07T08:11:24.832Z,1003.41
2022-11-07T08:12:24.820Z,1003.47
2022-11-07T08:13:24.826Z,1003.43
2022-11-07T08:14:24.804Z,1003.41
2022-11-07T08:15:24.784Z,1003.41
2022-11-07T08:16:24.777Z,1003.44
2022-11-07T08:17:24.769Z,1003.45
2022-11-07T08:18:24.778Z,1003.47
2022-11-07T08:19:24.741Z,1003.48
2022-11-07T08:20:24.745Z,1003.50
2022-11-07T08:21:24.724Z,1003.50
2022-11-07T08:22:24.718Z,1003.50
2022-11-07T08:23:24.724Z,1003.53
2022-11-07T08:24:24.708Z,1003.52
2022-11-07T08:25:24.692Z,1003.57
2022-11-07T08:26:24.675Z,1003.59
2022-11-07T08:27:24.654Z,1003.58
2022-11-07T08:28:24.644Z,1003.62
2022-11-07T08:29:24.631Z,1003.58
2022-11-07T08:30:24.646Z,1003.58
2022-11-07T08:31:24.624Z,1003.62
2022-11-07T08:32:24.617Z,1003.57
2022-11-07T08:33:24.706Z,1003.59
2022-11-07T08:34:24.581Z,1003.55
2022-11-07T08:35:24.574Z,1003.57
2022-11-07T08:36:24.577Z,1003.58
2022-11-07T08:37:24.626Z,1003.54
2022-11-07T08:38:24.538Z,1003.56
2022-11-07T08:39:24.536Z,1003.60
2022-11-07T08:40:24.568Z,1003.56
2022-11-07T08:41:24.522Z,1003.55
2022-11-07T08:42:24.498Z,1003.56
2022-11-07T08:43:24.572Z,1003.52
2022-11-07T08:44:24.484Z,1003.52
2022-11-07T08:45:24.476Z,1003.55
2022-11-07T08:46:24.458Z,1003.50
2022-11-07T08:47:24.466Z,1003.50
2022-11-07T08:48:24.589Z,1003.56
2022-11-07T08:49:24.422Z,1003.52
2022-11-07T08:50:24.447Z,1003.53
2022-11-07T08:51:24.416Z,1003.50
2022-11-07T08:52:24.388Z,1003.52
2022-11-07T08:53:24.417Z,1003.50
2022-11-07T08:54:24.375Z,1003.49
2022-11-07T08:55:24.350Z,1003.46
2022-11-07T08:56:24.340Z,1003.46
2022-11-07T08:57:24.326Z,1003.46
2022-11-07T08:58:29.712Z,1003.49
2022-11-07T08:59:24.319Z,1003.50
2022-11-07T09:00:24.346Z,1003.51
2022-11-07T09:01:24.478Z,1003.55
2022-11-07T09:03:44.345Z,1003.66
2022-11-07T09:04:24.306Z,1003.63
2022-11-07T09:05:24.238Z,1003.65
2022-11-07T09:06:24.254Z,1003.61
2022-11-07T09:07:24.328Z,1003.63
2022-11-07T09:08:24.231Z,1003.61
2022-11-07T09:09:24.251Z,1003.64
2022-11-07T09:10:24.232Z,1003.61
2022-11-07T09:11:24.231Z,1003.60
2022-11-07T09:12:24.179Z,1003.59
2022-11-07T09:13:24.163Z,1003.62
2022-11-07T09:14:24.159Z,1003.63
2022-11-07T09:15:24.130Z,1003.61
2022-11-07T09:16:24.125Z,1003.61
2022-11-07T09:17:24.124Z,1003.60
2022-11-07T09:18:24.110Z,1003.60
2022-11-07T09:19:24.103Z,1003.61
2022-11-07T09:20:24.088Z,1003.62
2022-11-07T09:21:24.079Z,1003.58
2022-11-07T09:22:24.064Z,1003.58
2022-11-07T09:23:24.060Z,1003.60
2022-11-07T09:24:24.054Z,1003.59
2022-11-07T09:25:24.063Z,1003.58
2022-11-07T09:26:24.027Z,1003.58
2022-11-07T09:27:24.010Z,1003.58
2022-11-07T09:28:24.008Z,1003.61
2022-11-07T09:29:23.988Z,1003.57
2022-11-07T09:30:23.995Z,1003.57
2022-11-07T09:31:23.999Z,1003.58
2022-11-07T09:32:44.022Z,1003.58
2022-11-07T09:33:23.954Z,1003.60
2022-11-07T09:34:23.933Z,1003.60
2022-11-07T09:35:23.923Z,1003.58
2022-11-07T09:36:23.920Z,1003.58
2022-11-07T09:37:23.945Z,1003.58
2022-11-07T09:38:23.893Z,1003.60
2022-11-07T09:39:23.895Z,1003.61
2022-11-07T09:40:23.870Z,1003.62
2022-11-07T09:41:23.884Z,1003.61
2022-11-07T09:42:23.843Z,1003.62
2022-11-07T09:43:23.847Z,1003.65
2022-11-07T09:44:29.458Z,1003.64
2022-11-07T09:45:23.819Z,1003.64
2022-11-07T09:46:23.809Z,1003.63
2022-11-07T09:47:23.786Z,1003.59
2022-11-07T09:48:23.777Z,1003.63
2022-11-07T09:49:23.784Z,1003.64
2022-11-07T09:50:23.774Z,1003.64
2022-11-07T09:51:23.768Z,1003.65
2022-11-07T09:52:23.732Z,1003.67
2022-11-07T09:53:23.725Z,1003.67
2022-11-07T09:54:23.729Z,1003.69
2022-11-07T09:55:23.737Z,1003.65
2022-11-07T09:56:23.697Z,1003.66
2022-11-07T09:57:23.686Z,1003.64
2022-11-07T09:58:23.672Z,1003.61
2022-11-07T09:59:23.664Z,1003.60
2022-11-07T10:00:23.647Z,1003.60
2022-11-07T10:01:23.814Z,1003.58
2022-11-07T10:02:23.699Z,1003.59
2022-11-07T10:03:23.626Z,1003.61
2022-11-07T10:04:25.844Z,1003.61
2022-11-07T10:05:23.596Z,1003.60
2022-11-07T10:06:24.425Z,1003.64
2022-11-07T10:07:23.587Z,1003.63
2022-11-07T10:08:23.569Z,1003.62
2022-11-07T10:09:23.555Z,1003.64
2022-11-07T10:10:23.579Z,1003.64
2022-11-07T10:11:23.571Z,1003.65
2022-11-07T10:12:23.533Z,1003.65
2022-11-07T10:13:23.524Z,1003.65
2022-11-07T10:14:23.509Z,1003.66
2022-11-07T10:15:23.491Z,1003.65
2022-11-07T10:16:23.497Z,1003.64
2022-11-07T10:17:23.467Z,1003.63
2022-11-07T10:18:23.474Z,1003.63
2022-11-07T10:19:23.442Z,1003.68
2022-11-07T10:20:24.909Z,1003.69
2022-11-07T10:21:39.417Z,1003.69
2022-11-07T10:22:23.557Z,1003.71
2022-11-07T10:23:23.422Z,1003.65
2022-11-07T10:24:23.389Z,1003.66
2022-11-07T10:25:23.380Z,1003.67
2022-11-07T10:26:23.367Z,1003.65
2022-11-07T10:27:23.381Z,1003.63
2022-11-07T10:28:23.374Z,1003.65
2022-11-07T10:29:23.336Z,1003.70
2022-11-07T10:30:23.320Z,1003.69
2022-11-07T10:31:23.313Z,1003.72
2022-11-07T10:32:23.298Z,1003.75
2022-11-07T10:33:23.292Z,1003.75
2022-11-07T10:34:23.505Z,1003.74
2022-11-07T10:35:23.318Z,1003.75
2022-11-07T10:36:23.278Z,1003.76
2022-11-07T10:37:23.256Z,1003.77
2022-11-07T10:38:23.252Z,1003.81
2022-11-07T10:39:23.235Z,1003.78
2022-11-07T10:40:23.246Z,1003.77
2022-11-07T10:41:23.213Z,1003.78
2022-11-07T10:42:23.197Z,1003.78
2022-11-07T10:43:23.187Z,1003.79
2022-11-07T10:44:23.170Z,1003.80
2022-11-07T10:45:23.162Z,1003.83
2022-11-07T10:46:23.165Z,1003.78
2022-11-07T10:47:23.143Z,1003.82
2022-11-07T10:48:23.131Z,1003.86
2022-11-07T10:49:23.127Z,1003.86
2022-11-07T10:50:23.106Z,1003.83
2022-11-07T10:51:23.092Z,1003.87
2022-11-07T10:52:23.100Z,1003.86
2022-11-07T10:53:23.084Z,1003.88
2022-11-07T10:54:23.056Z,1003.89
2022-11-07T10:55:23.051Z,1003.88
2022-11-07T10:56:23.040Z,1003.84
2022-11-07T10:57:23.063Z,1003.85
2022-11-07T10:58:23.032Z,1003.84
2022-11-07T10:59:23.025Z,1003.81
2022-11-07T11:00:22.996Z,1003.80
2022-11-07T11:01:23.222Z,1003.80
2022-11-07T11:02:23.022Z,1003.84
2022-11-07T11:03:24.198Z,1003.83
2022-11-07T11:04:22.955Z,1003.77
2022-11-07T11:05:22.962Z,1003.83
2022-11-07T11:06:22.949Z,1003.79
2022-11-07T11:07:28.094Z,1003.80
2022-11-07T11:08:22.922Z,1003.76
2022-11-07T11:09:22.906Z,1003.78
2022-11-07T11:10:22.924Z,1003.77
2022-11-07T11:11:22.935Z,1003.78
2022-11-07T11:12:22.884Z,1003.76
2022-11-07T11:13:22.851Z,1003.76
2022-11-07T11:14:22.887Z,1003.79
2022-11-07T11:15:22.832Z,1003.77
2022-11-07T11:16:22.841Z,1003.78
2022-11-07T11:17:22.879Z,1003.74
2022-11-07T11:18:22.801Z,1003.73
2022-11-07T11:19:22.792Z,1003.74
2022-11-07T11:20:22.775Z,1003.71
2022-11-07T11:21:22.766Z,1003.69
2022-11-07T11:22:22.772Z,1003.64
2022-11-07T11:23:22.750Z,1003.64
2022-11-07T11:24:22.738Z,1003.62
2022-11-07T11:25:22.731Z,1003.64
2022-11-07T11:26:22.710Z,1003.65
2022-11-07T11:27:22.705Z,1003.63
2022-11-07T11:28:22.734Z,1003.66
2022-11-07T11:29:22.680Z,1003.66
2022-11-07T11:30:22.669Z,1003.65
2022-11-07T11:31:22.661Z,1003.64
2022-11-07T11:32:22.676Z,1003.63
2022-11-07T11:33:22.655Z,1003.60
2022-11-07T11:34:22.644Z,1003.61
2022-11-07T11:35:22.625Z,1003.59
2022-11-07T11:36:22.610Z,1003.59
2022-11-07T11:37:22.631Z,1003.59
2022-11-07T11:38:22.617Z,1003.61
2022-11-07T11:39:22.587Z,1003.60
2022-11-07T11:40:22.569Z,1003.59
2022-11-07T11:41:22.556Z,1003.57
2022-11-07T11:42:22.545Z,1003.50
2022-11-07T11:43:22.532Z,1003.50
2022-11-07T11:44:22.548Z,1003.51
2022-11-07T11:45:22.520Z,1003.51
2022-11-07T11:46:22.519Z,1003.46
2022-11-07T11:47:22.495Z,1003.47
2022-11-07T11:48:22.482Z,1003.47
2022-11-07T11:49:22.480Z,1003.56
2022-11-07T11:50:22.481Z,1003.44
2022-11-07T11:51:22.460Z,1003.38
2022-11-07T11:52:22.425Z,1003.37
2022-11-07T11:53:22.420Z,1003.36
2022-11-07T11:54:22.420Z,1003.35
2022-11-07T11:55:22.411Z,1003.37
2022-11-07T11:56:22.382Z,1003.32
2022-11-07T11:57:22.374Z,1003.36
2022-11-07T11:58:22.385Z,1003.32
2022-11-07T11:59:22.354Z,1003.31
2022-11-07T12:00:22.363Z,1003.31
2022-11-07T12:01:22.617Z,1003.34
2022-11-07T12:02:22.387Z,1003.36
2022-11-07T12:03:22.330Z,1003.36
2022-11-07T12:04:22.303Z,1003.37
2022-11-07T12:05:22.291Z,1003.41
2022-11-07T12:06:22.296Z,1003.38
2022-11-07T12:07:22.279Z,1003.40
2022-11-07T12:08:22.266Z,1003.42
2022-11-07T12:09:22.247Z,1003.38
2022-11-07T12:10:22.249Z,1003.42
2022-11-07T12:11:22.219Z,1003.42
2022-11-07T12:12:22.220Z,1003.45
2022-11-07T12:13:22.249Z,1003.42
2022-11-07T12:14:22.214Z,1003.38
2022-11-07T12:15:22.192Z,1003.40
2022-11-07T12:16:22.165Z,1003.43
2022-11-07T12:17:22.175Z,1003.40
2022-11-07T12:18:22.189Z,1003.39
2022-11-07T12:19:22.139Z,1003.39
2022-11-07T12:20:22.134Z,1003.36
2022-11-07T12:21:22.135Z,1003.33
2022-11-07T12:22:22.106Z,1003.31
2022-11-07T12:23:22.111Z,1003.27
2022-11-07T12:24:22.103Z,1003.27
2022-11-07T12:25:22.095Z,1003.26
2022-11-07T12:26:22.064Z,1003.26
2022-11-07T12:27:26.691Z,1003.25
2022-11-07T12:28:22.082Z,1003.27
2022-11-07T12:29:22.022Z,1003.21
2022-11-07T12:30:22.019Z,1003.21
2022-11-07T12:31:22.020Z,1003.19
2022-11-07T12:32:21.988Z,1003.18
2022-11-07T12:33:21.981Z,1003.17
2022-11-07T12:34:21.991Z,1003.16
2022-11-07T12:35:22.027Z,1003.20
2022-11-07T12:36:21.956Z,1003.20
2022-11-07T12:37:21.953Z,1003.22
2022-11-07T12:38:21.936Z,1003.24
2022-11-07T12:39:21.916Z,1003.26
2022-11-07T12:40:21.912Z,1003.24
2022-11-07T12:41:21.909Z,1003.26
2022-11-07T12:42:21.892Z,1003.27
2022-11-07T12:43:21.874Z,1003.25
2022-11-07T12:44:21.863Z,1003.25
2022-11-07T12:45:21.857Z,1003.25
2022-11-07T12:46:21.871Z,1003.26
2022-11-07T12:47:21.848Z,1003.25
2022-11-07T12:48:21.835Z,1003.26
2022-11-07T12:49:21.935Z,1003.24
2022-11-07T12:50:21.806Z,1003.25
2022-11-07T12:51:21.865Z,1003.24
2022-11-07T12:52:21.788Z,1003.26
2022-11-07T12:53:21.771Z,1003.29
2022-11-07T12:54:21.760Z,1003.32
2022-11-07T12:55:21.754Z,1003.30
2022-11-07T12:56:21.721Z,1003.30
2022-11-07T12:57:21.733Z,1003.31
2022-11-07T12:58:21.769Z,1003.29
2022-11-07T12:59:21.713Z,1003.26
2022-11-07T13:00:27.682Z,1003.24
2022-11-07T13:01:21.779Z,1003.25
2022-11-07T13:02:21.727Z,1003.21
2022-11-07T13:03:21.660Z,1003.21
2022-11-07T13:04:21.658Z,1003.23
2022-11-07T13:05:21.667Z,1003.21
2022-11-07T13:06:21.634Z,1003.19
2022-11-07T13:07:21.617Z,1003.18
2022-11-07T13:08:21.624Z,1003.18
2022-11-07T13:09:21.600Z,1003.20
2022-11-07T13:10:21.573Z,1003.20
2022-11-07T13:11:21.573Z,1003.16
2022-11-07T13:12:21.558Z,1003.17
2022-11-07T13:13:21.572Z,1003.21
2022-11-07T13:14:24.252Z,1003.13
2022-11-07T13:15:21.518Z,1003.14
2022-11-07T13:16:21.523Z,1003.13
2022-11-07T13:17:21.527Z,1003.11
2022-11-07T13:18:21.499Z,1003.13
2022-11-07T13:19:21.488Z,1003.15
2022-11-07T13:20:21.484Z,1003.17
2022-11-07T13:21:21.472Z,1003.20
2022-11-07T13:22:21.452Z,1003.22
2022-11-07T13:23:21.500Z,1003.22
2022-11-07T13:24:21.426Z,1003.19
2022-11-07T13:25:21.451Z,1003.20
2022-11-07T13:26:45.977Z,1003.19
2022-11-07T13:27:21.425Z,1003.21
2022-11-07T13:28:21.382Z,1003.22
2022-11-07T13:29:21.384Z,1003.19
2022-11-07T13:30:21.366Z,1003.18
2022-11-07T13:31:21.364Z,1003.17
2022-11-07T13:32:21.991Z,1003.17
2022-11-07T13:33:21.372Z,1003.14
2022-11-07T13:34:21.351Z,1003.13
2022-11-07T13:35:21.328Z,1003.14
2022-11-07T13:37:31.622Z,1003.17
2022-11-07T13:38:32.612Z,1003.17
2022-11-07T13:39:32.764Z,1003.16
2022-11-07T13:40:32.577Z,1003.18
2022-11-07T13:41:32.570Z,1003.18
2022-11-07T13:42:32.590Z,1003.18
2022-11-07T13:43:32.541Z,1003.18
2022-11-07T13:44:32.531Z,1003.20
2022-11-07T13:45:32.517Z,1003.20
2022-11-07T13:46:32.513Z,1003.19
2022-11-07T13:47:32.525Z,1003.17
2022-11-07T13:48:32.525Z,1003.16
2022-11-07T13:49:32.533Z,1003.17
2022-11-07T13:50:32.474Z,1003.17
2022-11-07T13:51:32.450Z,1003.18
2022-11-07T13:52:32.460Z,1003.18
2022-11-07T13:53:32.521Z,1003.19
2022-11-07T13:54:32.446Z,1003.21
2022-11-07T13:55:32.424Z,1003.21
2022-11-07T13:56:32.415Z,1003.23
2022-11-07T13:57:32.401Z,1003.23
2022-11-07T13:58:32.464Z,1003.25
2022-11-07T13:59:36.488Z,1003.18
2022-11-07T14:00:32.445Z,1003.20
2022-11-07T14:01:32.478Z,1003.23
2022-11-07T14:02:32.567Z,1003.25
2022-11-07T14:03:32.332Z,1003.24
2022-11-07T14:04:40.666Z,1003.23
2022-11-07T14:05:32.328Z,1003.22
2022-11-07T14:06:32.327Z,1003.25
2022-11-07T14:07:32.279Z,1003.29
2022-11-07T14:08:32.294Z,1003.26
2022-11-07T14:09:32.260Z,1003.27
2022-11-07T14:10:32.276Z,1003.27
2022-11-07T14:11:32.238Z,1003.30
2022-11-07T14:12:32.237Z,1003.31
2022-11-07T14:13:34.693Z,1003.30
2022-11-07T14:14:32.254Z,1003.31
2022-11-07T14:15:32.200Z,1003.34
2022-11-07T14:16:32.198Z,1003.34
2022-11-07T14:17:32.167Z,1003.37
2022-11-07T14:18:32.417Z,1003.35
2022-11-07T14:19:32.137Z,1003.35
2022-11-07T14:20:32.165Z,1003.34
2022-11-07T14:21:32.116Z,1003.31
2022-11-07T14:22:32.113Z,1003.31
2022-11-07T14:23:32.105Z,1003.34
2022-11-07T14:24:32.109Z,1003.31
2022-11-07T14:25:32.281Z,1003.33
2022-11-07T14:26:32.075Z,1003.32
2022-11-07T14:27:32.095Z,1003.31
2022-11-07T14:28:32.054Z,1003.33
2022-11-07T14:29:32.043Z,1003.32
2022-11-07T14:30:32.030Z,1003.33
2022-11-07T14:31:32.019Z,1003.32
2022-11-07T14:32:32.403Z,1003.31
2022-11-07T14:33:32.016Z,1003.36
2022-11-07T14:34:31.989Z,1003.38
2022-11-07T14:35:31.974Z,1003.40
2022-11-07T14:36:31.966Z,1003.40
2022-11-07T14:37:31.966Z,1003.42
2022-11-07T14:38:31.945Z,1003.42
2022-11-07T14:39:32.028Z,1003.42
2022-11-07T14:40:31.924Z,1003.46
2022-11-07T14:41:31.928Z,1003.45
2022-11-07T14:42:31.934Z,1003.45
2022-11-07T14:43:31.913Z,1003.45
2022-11-07T14:44:47.751Z,1003.44
2022-11-07T14:46:10.347Z,1003.41
2022-11-07T14:46:31.864Z,1003.41
2022-11-07T14:47:31.861Z,1003.35
2022-11-07T14:48:31.872Z,1003.32
2022-11-07T14:49:31.823Z,1003.32
2022-11-07T14:50:31.829Z,1003.29
2022-11-07T14:51:31.798Z,1003.32
2022-11-07T14:52:31.831Z,1003.38
2022-11-07T14:53:31.773Z,1003.40
2022-11-07T14:54:31.779Z,1003.40
2022-11-07T14:55:31.758Z,1003.40
2022-11-07T14:56:31.755Z,1003.43
2022-11-07T14:57:31.736Z,1003.39
2022-11-07T14:58:31.775Z,1003.41
2022-11-07T14:59:31.710Z,1003.39
2022-11-07T15:00:31.693Z,1003.38
2022-11-07T15:01:31.923Z,1003.38
2022-11-07T15:02:31.868Z,1003.38
2022-11-07T15:03:31.683Z,1003.37
2022-11-07T15:04:31.943Z,1003.39
2022-11-07T15:05:31.650Z,1003.41
2022-11-07T15:06:31.637Z,1003.37
2022-11-07T15:07:31.628Z,1003.36
2022-11-07T15:08:31.633Z,1003.35
2022-11-07T15:09:31.633Z,1003.33
2022-11-07T15:10:31.595Z,1003.35
2022-11-07T15:11:31.767Z,1003.34
2022-11-07T15:12:31.571Z,1003.35
2022-11-07T15:13:31.563Z,1003.38
2022-11-07T15:14:31.602Z,1003.35
2022-11-07T15:15:31.577Z,1003.37
2022-11-07T15:16:31.551Z,1003.35
2022-11-07T15:17:33.418Z,1003.36
2022-11-07T15:18:31.531Z,1003.33
2022-11-07T15:19:31.501Z,1003.35
2022-11-07T15:20:31.506Z,1003.36
2022-11-07T15:21:31.478Z,1003.36
2022-11-07T15:22:31.478Z,1003.34
2022-11-07T15:23:31.479Z,1003.34
2022-11-07T15:24:31.475Z,1003.38
2022-11-07T15:25:31.437Z,1003.37
2022-11-07T15:26:31.431Z,1003.38
2022-11-07T15:27:31.426Z,1003.39
2022-11-07T15:28:31.409Z,1003.41
2022-11-07T15:29:31.417Z,1003.41
2022-11-07T15:30:31.370Z,1003.40
2022-11-07T15:31:31.354Z,1003.40
2022-11-07T15:32:31.361Z,1003.39
2022-11-07T15:33:31.370Z,1003.39
2022-11-07T15:34:53.318Z,1003.37
2022-11-07T15:35:43.981Z,1003.37
2022-11-07T15:36:31.304Z,1003.38
2022-11-07T15:37:31.290Z,1003.39
2022-11-07T15:38:31.292Z,1003.39
2022-11-07T15:39:31.341Z,1003.43
2022-11-07T15:40:31.270Z,1003.40
2022-11-07T15:41:31.276Z,1003.38
2022-11-07T15:42:31.242Z,1003.40
2022-11-07T15:43:31.251Z,1003.41
2022-11-07T15:44:31.234Z,1003.43
2022-11-07T15:45:31.211Z,1003.44
2022-11-07T15:46:31.214Z,1003.46
2022-11-07T15:47:31.226Z,1003.48
2022-11-07T15:48:31.177Z,1003.50
2022-11-07T15:49:31.166Z,1003.50
2022-11-07T15:50:31.174Z,1003.51
2022-11-07T15:51:31.145Z,1003.50
2022-11-07T15:52:31.154Z,1003.50
2022-11-07T15:53:31.202Z,1003.49
2022-11-07T15:54:31.114Z,1003.50
2022-11-07T15:55:31.111Z,1003.50
2022-11-07T15:56:31.110Z,1003.49
2022-11-07T15:57:31.084Z,1003.53
2022-11-07T15:58:31.079Z,1003.54
2022-11-07T15:59:31.086Z,1003.53